Accueil
METAR-TAF:

METAR-TAF

Aéroports :

Aéroport de Parme

Parme, Italie

latitude: 44-49-17N, longitude: 010-17-41E, altitude: 50 m

Observation

Le bulletin a été fait il y a 2 heures et 33 minutes, à 20:50 UTC
Vent 3 kt de sud
Température 16°C
Humidité 72%
Pression 1003 hPa
Visibilité 10 km ou plus
pas de nuages en-dessous de 1500 mètres et pas de cumulonimbus.

METAR: LIMP 262050Z 17003KT CAVOK 16/11 Q1003

Heure: 01:23 (23:23 UTC)

Prévision

Le bulletin a été fait il y a 6 heures et 23 minutes, à 17:00 UTC
Prévision valable du 26 à 18 UTC au 27 à 18 UTC
Vent 5 kt de direction variable
Visibilité 10 km ou plus
Quelques nuages à une hauteur de 3000 ft
Evoluant progressivement
du 27 à 09 UTC au 27 à 11 UTC
Vent 14 kt de nord-ouest

TAF: LIMP 261700Z 2618/2718 VRB05KT 9999 FEW030 BECMG 2709/2711 32014KT

Observations et prévisions météorologiques de plus de 4000 aéroports (messages METAR et TAF).

Les stations disponibles sont représentées par des disques jaunes et rouges sur la carte.

Passer la souris dessus pour voir le nom de la station.

Cliquer dessus pour voir les observations et prévisions météorologiques.

Pour changer de carte: cliquez sur les boutons verts avec une croix noire pour zoomer, sur le bouton vert avec un tiret pour effectuer un zoom arrière, ou sur les flèches vertes pour les cartes adjacentes.


METAR-TAF: